Portada
METAR-TAF:

METAR-TAF

Aeropuertos :

Nimes, Francia

latitud: 43-45N, longitud: 004-25E, altitud: 94 m

Observación

El informe se hizo hace 13 minutos, a las 05:00 UTC
Viento 9 kt del noroeste
Temperatura 7°C
Humedad 70%
Presión 1008 hPa
Visibilidad 10 km o más
sin nubes por debajo de 1500 m y sin presencia de cumulonimbus.

METAR: LFTW 040500Z AUTO 32009KT CAVOK 07/02 Q1008 NOSIG

Hora: 06:13 (05:13 UTC)

Pronóstico

El informe se hizo hace 3 horas y 13 minutos, a las 02:00 UTC
Pronóstico válido del 04 a las 03 UTC al 05 a las 03 UTC
Viento 12 kt del norte
Visibilidad 10 km o más
sin nubes por debajo de 1500 m y sin presencia de cumulonimbus.
Evolucionando progresivamente
del 04 a las 14 UTC al 04 a las 16 UTC
Viento 4 kt con dirección variable
Temporalmente
del 05 a las 00 UTC al 05 a las 03 UTC
Viento 10 kt del oeste-noroeste

TAF: LFTW 040200Z 0403/0503 35012KT CAVOK BECMG 0414/0416 VRB04KT TEMPO 0500/0503 29010KT

Observaciones y pronósticos meteorológicos de más de 4000 aeropuertos (mensajes METAR y TAF).

Los puntos amarillos y rojos representan las estaciones disponibles.

Ponga el ratón en el punto deseado para ver el nombre de la estación.

Haga clic para ver las observaciones y los pronósticos meteorológicos.

Para cambiar el mapa : haga clic en los botones verdes con una cruz de color negro para hacer un zoom, en el botón verde con un guión para alejar o en las flechas verdes para mapas adyacentes.


METAR-TAF: